This is the latest recevied weather packets stored in our database for station/object GW7287. If no packets are shown the sender has not sent any weather packets the latest 10 day(s).
| Time | Temp. | Humidity | Pressure | Rain* | Wind** | Luminosity | Snow |
|---|---|---|---|---|---|---|---|
| 1787505162 | 32.22° C | 15% | 928.5 hPa | - | - | - | - |
| 1787503749 | 32.22° C | 15% | 928.5 hPa | - | - | - | - |
| 1787501828 | 31.67° C | 16% | 928.9 hPa | - | - | - | - |
| 1787501637 | 31.67° C | 16% | 928.9 hPa | - | - | - | - |
| 1787499870 | 31.67° C | 16% | 928.9 hPa | - | - | - | - |
| 1787498135 | 31.67° C | 18% | 929.3 hPa | - | - | - | - |
| 1787497988 | 31.67° C | 18% | 929.3 hPa | - | - | - | - |
| 1787496400 | 31.67° C | 18% | 929.3 hPa | - | - | - | - |
| 1787494592 | 31.67° C | 16% | 929.8 hPa | - | - | - | - |
| 1787494438 | 31.67° C | 16% | 929.8 hPa | - | - | - | - |
| 1787493112 | 31.67° C | 16% | 929.8 hPa | - | - | - | - |
| 1787491514 | 30° C | 19% | 930.4 hPa | - | - | - | - |
| 1787490573 | 30° C | 19% | 930.4 hPa | - | - | - | - |
| 1787487953 | 28.89° C | 21% | 930.9 hPa | - | - | - | - |
| 1787487619 | 28.89° C | 21% | 930.9 hPa | - | - | - | - |
| 1787485401 | 28.89° C | 21% | 930.9 hPa | - | - | - | - |
| 1787483709 | 27.22° C | 26% | 931.3 hPa | - | - | - | - |
| 1787483548 | 27.22° C | 26% | 931.3 hPa | - | - | - | - |
| 1787482073 | 27.22° C | 26% | 931.3 hPa | - | - | - | - |
| 1787480193 | 24.44° C | 33% | 931.2 hPa | - | - | - | - |
| 1787480040 | 24.44° C | 33% | 931.2 hPa | - | - | - | - |
| 1787478649 | 24.44° C | 33% | 931.2 hPa | - | - | - | - |
| 1787476957 | 21.11° C | 42% | 931.1 hPa | - | - | - | - |
| 1787476718 | 21.11° C | 42% | 931.1 hPa | - | - | - | - |
| 1787475351 | 21.11° C | 42% | 931.1 hPa | - | - | - | - |
* Rain since midnight (hover to see other rain measurements)
** Current wind speed in m/s (hover to see current wind gust speed)